createdAt,value
2022-08-17T00:00:34.234Z,6.70
2022-08-17T00:03:31.640Z,6.53
2022-08-17T00:06:14.040Z,7.20
2022-08-17T00:08:53.984Z,6.85
2022-08-17T00:11:30.956Z,6.65
2022-08-17T00:14:09.650Z,6.05
2022-08-17T00:16:50.448Z,6.45
2022-08-17T00:19:26.606Z,6.07
2022-08-17T00:22:32.622Z,6.13
2022-08-17T00:24:47.215Z,6.35
2022-08-17T00:27:14.242Z,6.18
2022-08-17T00:29:42.163Z,6.65
2022-08-17T00:33:11.614Z,5.93
2022-08-17T00:34:56.119Z,7.03
2022-08-17T00:37:23.097Z,6.65
2022-08-17T00:39:50.189Z,7.20
2022-08-17T00:42:19.749Z,7.13
2022-08-17T00:44:46.944Z,6.25
2022-08-17T00:47:14.000Z,7.18
2022-08-17T00:49:41.171Z,6.75
2022-08-17T00:52:20.474Z,7.47
2022-08-17T00:54:49.746Z,6.90
2022-08-17T00:57:31.256Z,7.90
2022-08-17T01:00:27.360Z,7.95
2022-08-17T01:03:08.395Z,6.97
2022-08-17T01:05:38.831Z,7.03
2022-08-17T01:08:15.185Z,6.60
2022-08-17T01:10:58.691Z,6.90
2022-08-17T01:13:40.989Z,7.40
2022-08-17T01:16:19.052Z,7.87
2022-08-17T01:18:52.211Z,6.93
2022-08-17T01:22:14.403Z,7.00
2022-08-17T01:24:59.998Z,5.57
2022-08-17T01:27:28.543Z,7.13
2022-08-17T01:30:02.680Z,7.27
2022-08-17T01:32:30.391Z,8.20
2022-08-17T01:34:58.349Z,7.07
2022-08-17T01:37:42.550Z,8.13
2022-08-17T01:40:39.985Z,8.10
2022-08-17T01:43:30.082Z,7.65
2022-08-17T01:46:02.463Z,8.23
2022-08-17T01:48:38.225Z,8.27
2022-08-17T01:51:07.514Z,8.37
2022-08-17T01:53:44.268Z,8.90
2022-08-17T01:56:17.253Z,7.77
2022-08-17T01:58:44.887Z,9.20
2022-08-17T02:01:14.579Z,8.53
2022-08-17T02:03:42.063Z,8.80
2022-08-17T02:06:27.658Z,8.48
2022-08-17T02:09:01.526Z,8.30
2022-08-17T02:11:34.345Z,8.47
2022-08-17T02:14:03.009Z,8.60
2022-08-17T02:16:38.428Z,8.77
2022-08-17T02:19:15.622Z,8.80
2022-08-17T02:21:50.173Z,8.37
2022-08-17T02:24:58.875Z,8.70
2022-08-17T02:27:18.575Z,8.33
2022-08-17T02:29:45.623Z,8.77
2022-08-17T02:32:28.495Z,8.97
2022-08-17T02:34:58.398Z,9.53
2022-08-17T02:37:28.189Z,9.47
2022-08-17T02:39:57.159Z,10.63
2022-08-17T02:42:44.426Z,9.53
2022-08-17T02:45:18.278Z,9.77
2022-08-17T02:47:45.907Z,9.30
2022-08-17T02:50:16.502Z,8.00
2022-08-17T02:52:53.253Z,8.77
2022-08-17T02:55:35.302Z,9.63
2022-08-17T02:58:03.646Z,9.07
2022-08-17T03:00:41.070Z,9.40
2022-08-17T03:03:10.739Z,9.07
2022-08-17T03:05:38.632Z,8.90
2022-08-17T03:08:07.212Z,8.50
2022-08-17T03:10:39.960Z,8.80
2022-08-17T03:13:07.422Z,9.30
2022-08-17T03:15:35.304Z,8.93
2022-08-17T03:18:03.719Z,9.03
2022-08-17T03:20:33.799Z,9.43
2022-08-17T03:23:01.887Z,9.60
2022-08-17T03:25:42.748Z,10.03
2022-08-17T03:28:12.230Z,10.07
2022-08-17T03:30:40.319Z,9.83
2022-08-17T03:33:12.148Z,9.97
2022-08-17T03:35:41.087Z,10.70
2022-08-17T03:38:11.355Z,10.87
2022-08-17T03:40:57.942Z,10.00
2022-08-17T03:43:30.845Z,11.00
2022-08-17T03:46:27.252Z,11.17
2022-08-17T03:49:15.697Z,11.40
2022-08-17T03:52:01.236Z,11.33
2022-08-17T03:54:46.809Z,10.93
2022-08-17T03:57:14.170Z,10.57
2022-08-17T03:59:41.663Z,10.77
2022-08-17T04:02:18.952Z,9.80
2022-08-17T04:04:46.681Z,10.93
2022-08-17T04:07:13.705Z,11.03
2022-08-17T04:09:40.708Z,10.40
2022-08-17T04:12:07.837Z,10.93
2022-08-17T04:14:53.147Z,11.00
2022-08-17T04:17:28.621Z,10.30
2022-08-17T04:19:56.073Z,10.53
2022-08-17T04:22:31.262Z,10.50
2022-08-17T04:25:19.016Z,10.40
2022-08-17T04:27:46.149Z,10.27
2022-08-17T04:30:14.500Z,10.13
2022-08-17T04:33:15.791Z,10.33
2022-08-17T04:35:51.430Z,10.33
2022-08-17T04:38:24.380Z,9.87
2022-08-17T04:41:10.845Z,10.20
2022-08-17T04:43:43.005Z,9.50
2022-08-17T04:46:19.726Z,9.67
2022-08-17T04:48:53.646Z,10.07
2022-08-17T04:51:36.484Z,9.27
2022-08-17T04:54:15.951Z,9.03
2022-08-17T04:56:43.551Z,9.53
2022-08-17T04:59:21.107Z,9.07
2022-08-17T05:01:52.528Z,8.93
2022-08-17T05:04:33.938Z,9.47
2022-08-17T05:07:04.445Z,9.50
2022-08-17T05:09:31.912Z,9.07
2022-08-17T05:12:02.554Z,9.48
2022-08-17T05:14:33.069Z,8.68
2022-08-17T05:17:02.019Z,8.95
2022-08-17T05:19:34.460Z,8.60
2022-08-17T05:22:06.192Z,7.93
2022-08-17T05:24:40.731Z,8.55
2022-08-17T05:27:11.034Z,7.82
2022-08-17T05:29:46.185Z,8.70
2022-08-17T05:32:38.392Z,7.95
2022-08-17T05:35:01.260Z,7.45
2022-08-17T05:37:28.680Z,8.60
2022-08-17T05:39:56.033Z,8.07
2022-08-17T05:42:23.998Z,7.18
2022-08-17T05:44:51.050Z,7.30
2022-08-17T05:47:18.775Z,6.65
2022-08-17T05:49:48.279Z,7.43
2022-08-17T05:53:15.570Z,6.47
2022-08-17T05:56:29.337Z,6.80
2022-08-17T05:59:48.570Z,6.57
2022-08-17T06:02:51.411Z,8.07
2022-08-17T06:06:04.157Z,7.15
2022-08-17T06:09:22.862Z,6.45
2022-08-17T06:12:35.728Z,6.15
2022-08-17T06:15:30.736Z,6.40
2022-08-17T06:18:08.192Z,7.70
2022-08-17T06:20:59.823Z,6.65
2022-08-17T06:23:43.326Z,6.53
2022-08-17T06:26:25.895Z,6.82
2022-08-17T06:29:18.815Z,7.18
2022-08-17T06:31:46.058Z,7.20
2022-08-17T06:34:13.535Z,7.75
2022-08-17T06:37:09.051Z,5.95
2022-08-17T06:40:37.183Z,5.55
2022-08-17T06:43:48.797Z,5.22
2022-08-17T06:46:48.460Z,5.05
2022-08-17T06:49:33.681Z,5.60
2022-08-17T06:52:45.826Z,5.65
2022-08-17T06:55:45.158Z,4.75
2022-08-17T06:58:16.461Z,4.85
2022-08-17T07:00:47.657Z,4.55
2022-08-17T07:03:55.719Z,4.95
2022-08-17T07:06:32.317Z,4.88
2022-08-17T07:09:37.673Z,4.25
2022-08-17T07:12:27.932Z,5.38
2022-08-17T07:15:21.670Z,5.45
2022-08-17T07:17:49.446Z,5.72
2022-08-17T07:20:22.697Z,5.43
2022-08-17T07:23:28.661Z,5.47
2022-08-17T07:26:09.025Z,5.78
2022-08-17T07:28:38.549Z,4.85
2022-08-17T07:31:06.851Z,4.80
2022-08-17T07:33:36.772Z,4.15
2022-08-17T07:36:04.300Z,4.43
2022-08-17T07:38:35.425Z,4.20
2022-08-17T07:41:08.347Z,3.70
2022-08-17T07:43:40.860Z,3.83
2022-08-17T07:46:52.656Z,3.53
2022-08-17T07:49:31.700Z,4.38
2022-08-17T07:52:51.274Z,3.45
2022-08-17T07:55:35.013Z,2.97
2022-08-17T07:58:03.366Z,3.08
2022-08-17T08:00:33.054Z,3.25
2022-08-17T08:03:20.585Z,3.30
2022-08-17T08:06:03.003Z,3.30
2022-08-17T08:08:42.685Z,3.20
2022-08-17T08:11:28.312Z,3.28
2022-08-17T08:13:55.301Z,2.60
2022-08-17T08:16:31.306Z,2.55
2022-08-17T08:19:01.933Z,2.85
2022-08-17T08:22:22.591Z,2.65
2022-08-17T08:25:22.900Z,3.15
2022-08-17T08:28:21.285Z,3.50
2022-08-17T08:30:58.586Z,3.28
2022-08-17T08:33:56.523Z,3.08
2022-08-17T08:37:17.593Z,2.92
2022-08-17T08:40:08.303Z,2.95
2022-08-17T08:43:22.321Z,2.70
2022-08-17T08:46:20.001Z,2.67
2022-08-17T08:50:04.732Z,2.47
2022-08-17T08:53:05.054Z,2.70
2022-08-17T08:55:59.970Z,2.65
2022-08-17T08:59:23.969Z,2.80
2022-08-17T09:02:09.502Z,2.83
2022-08-17T09:05:14.483Z,2.75
2022-08-17T09:08:27.364Z,2.70
2022-08-17T09:11:17.313Z,2.60
2022-08-17T09:14:21.895Z,2.55
2022-08-17T09:17:13.804Z,2.80
2022-08-17T09:19:56.254Z,2.63
2022-08-17T09:22:42.667Z,2.80
2022-08-17T09:25:23.290Z,2.80
2022-08-17T09:28:00.915Z,2.72
2022-08-17T09:30:45.408Z,2.60
2022-08-17T09:33:23.034Z,2.70
2022-08-17T09:36:11.458Z,2.90
2022-08-17T09:39:07.245Z,3.00
2022-08-17T09:41:56.221Z,2.83
2022-08-17T09:44:53.465Z,2.75
2022-08-17T09:47:47.443Z,2.72
2022-08-17T09:51:03.771Z,3.00
2022-08-17T09:53:23.649Z,2.90
2022-08-17T09:56:43.748Z,2.55
2022-08-17T10:00:18.647Z,3.00
2022-08-17T10:03:21.991Z,3.00
2022-08-17T10:06:27.368Z,2.90
2022-08-17T10:09:17.172Z,3.03
2022-08-17T10:12:11.399Z,2.95
2022-08-17T10:15:50.434Z,3.20
2022-08-17T10:18:47.715Z,3.03
2022-08-17T10:21:37.622Z,3.42
2022-08-17T10:25:21.578Z,3.00
2022-08-17T10:27:54.026Z,3.42
2022-08-17T10:30:28.064Z,3.30
2022-08-17T10:33:12.826Z,3.58
2022-08-17T10:35:53.606Z,3.00
2022-08-17T10:38:34.012Z,2.80
2022-08-17T10:41:36.931Z,3.10
2022-08-17T10:44:38.043Z,2.90
2022-08-17T10:47:18.183Z,3.00
2022-08-17T10:49:54.194Z,2.97
2022-08-17T10:52:24.841Z,2.90
2022-08-17T10:54:51.926Z,3.17
2022-08-17T10:57:33.717Z,3.38
2022-08-17T11:00:25.516Z,3.10
2022-08-17T11:02:57.432Z,3.28
2022-08-17T11:06:06.519Z,3.50
2022-08-17T11:09:26.245Z,3.17
2022-08-17T11:12:37.545Z,2.65
2022-08-17T11:16:16.766Z,3.10
2022-08-17T11:19:14.228Z,3.20
2022-08-17T11:22:42.033Z,3.05
2022-08-17T11:25:22.608Z,3.35
2022-08-17T11:28:05.115Z,3.28
2022-08-17T11:30:57.838Z,3.60
2022-08-17T11:33:34.210Z,3.53
2022-08-17T11:36:16.342Z,3.25
2022-08-17T11:39:21.394Z,3.20
2022-08-17T11:42:54.117Z,3.40
2022-08-17T11:46:13.654Z,3.70
2022-08-17T11:49:11.193Z,3.60
2022-08-17T11:52:34.377Z,3.50
2022-08-17T11:55:17.991Z,3.20
2022-08-17T11:58:25.430Z,3.63
2022-08-17T12:00:58.398Z,3.45
2022-08-17T12:03:31.845Z,3.33
2022-08-17T12:06:30.246Z,3.63
2022-08-17T12:09:15.828Z,3.15
2022-08-17T12:12:13.431Z,3.35
2022-08-17T12:15:10.076Z,3.25
2022-08-17T12:17:41.070Z,3.13
2022-08-17T12:20:38.582Z,3.10
2022-08-17T12:23:44.301Z,3.30
2022-08-17T12:26:30.161Z,3.13
2022-08-17T12:29:18.123Z,3.40
2022-08-17T12:32:03.486Z,3.00
2022-08-17T12:34:42.517Z,2.95
2022-08-17T12:37:27.401Z,3.10
2022-08-17T12:40:16.577Z,2.65
2022-08-17T12:43:21.805Z,3.00
2022-08-17T12:46:13.340Z,3.22
2022-08-17T12:48:59.344Z,3.30
2022-08-17T12:51:28.949Z,2.83
2022-08-17T12:53:56.314Z,3.10
2022-08-17T12:56:23.462Z,3.13
2022-08-17T12:58:56.596Z,3.33
2022-08-17T13:01:26.074Z,2.70
2022-08-17T13:03:59.637Z,3.00
2022-08-17T13:06:35.206Z,3.17
2022-08-17T13:09:22.506Z,2.75
2022-08-17T13:12:05.175Z,3.05
2022-08-17T13:14:33.355Z,3.00
2022-08-17T13:17:09.728Z,3.10
2022-08-17T13:19:49.941Z,3.30
2022-08-17T13:22:24.620Z,3.08
2022-08-17T13:24:58.209Z,3.13
2022-08-17T13:27:28.098Z,2.97
2022-08-17T13:30:02.179Z,3.33
2022-08-17T13:32:43.861Z,3.20
2022-08-17T13:35:50.107Z,3.40
2022-08-17T13:38:49.461Z,4.05
2022-08-17T13:41:46.928Z,3.35
2022-08-17T13:44:40.306Z,3.75
2022-08-17T13:47:27.771Z,3.65
2022-08-17T13:49:55.511Z,3.05
2022-08-17T13:52:43.515Z,3.30
2022-08-17T13:55:22.597Z,2.92
2022-08-17T13:58:07.017Z,2.88
2022-08-17T14:00:36.664Z,3.58
2022-08-17T14:03:05.598Z,2.97
2022-08-17T14:05:33.751Z,2.80
2022-08-17T14:08:06.797Z,2.92
2022-08-17T14:10:36.319Z,3.33
2022-08-17T14:13:04.959Z,2.63
2022-08-17T14:15:56.005Z,2.92
2022-08-17T14:18:51.995Z,2.97
2022-08-17T14:21:08.413Z,2.83
2022-08-17T14:23:37.179Z,2.85
2022-08-17T14:26:04.833Z,2.80
2022-08-17T14:28:32.326Z,2.85
2022-08-17T14:31:01.111Z,3.25
2022-08-17T14:33:30.968Z,3.00
2022-08-17T14:35:58.173Z,3.13
2022-08-17T14:38:25.118Z,3.53
2022-08-17T14:40:52.503Z,3.25
2022-08-17T14:43:20.420Z,2.80
2022-08-17T14:45:47.701Z,2.95
2022-08-17T14:48:14.757Z,3.25
2022-08-17T14:50:43.748Z,3.00
2022-08-17T14:53:14.079Z,2.88
2022-08-17T14:55:41.323Z,2.92
2022-08-17T14:58:09.066Z,3.08
2022-08-17T15:00:39.889Z,3.20
2022-08-17T15:03:06.935Z,2.80
2022-08-17T15:05:37.799Z,3.20
2022-08-17T15:08:06.418Z,3.30
2022-08-17T15:10:34.044Z,2.78
2022-08-17T15:13:01.581Z,2.97
2022-08-17T15:15:29.327Z,3.13
2022-08-17T15:17:57.114Z,3.22
2022-08-17T15:20:29.600Z,3.13
2022-08-17T15:22:58.952Z,3.58
2022-08-17T15:25:31.920Z,3.42
2022-08-17T15:28:00.526Z,3.33
2022-08-17T15:30:28.063Z,3.20
2022-08-17T15:33:01.791Z,3.35
2022-08-17T15:35:33.862Z,3.28
2022-08-17T15:38:11.833Z,3.08
2022-08-17T15:40:45.333Z,3.72
2022-08-17T15:43:27.008Z,4.35
2022-08-17T15:46:19.307Z,3.50
2022-08-17T15:48:53.382Z,3.65
2022-08-17T15:51:30.996Z,3.13
2022-08-17T15:54:17.234Z,3.35
2022-08-17T15:56:49.405Z,3.05
2022-08-17T15:59:16.414Z,3.00
2022-08-17T16:03:15.105Z,2.72
2022-08-17T16:04:31.739Z,3.67
2022-08-17T16:07:00.054Z,3.30
2022-08-17T16:09:27.643Z,2.90
2022-08-17T16:11:56.060Z,3.53
2022-08-17T16:14:30.236Z,3.33
2022-08-17T16:17:00.618Z,3.80
2022-08-17T16:19:27.701Z,3.40
2022-08-17T16:21:54.705Z,3.50
2022-08-17T16:24:21.915Z,3.40
2022-08-17T16:26:48.880Z,3.33
2022-08-17T16:29:15.892Z,2.75
2022-08-17T16:31:43.243Z,3.17
2022-08-17T16:34:17.717Z,2.85
2022-08-17T16:36:54.750Z,2.95
2022-08-17T16:39:28.815Z,2.83
2022-08-17T16:41:57.156Z,3.10
2022-08-17T16:44:25.628Z,3.10
2022-08-17T16:46:53.344Z,2.78
2022-08-17T16:49:35.865Z,3.10
2022-08-17T16:52:12.497Z,3.00
2022-08-17T16:54:44.321Z,3.25
2022-08-17T16:57:13.970Z,2.80
2022-08-17T16:59:45.016Z,3.13
2022-08-17T17:02:27.639Z,3.00
2022-08-17T17:05:27.201Z,2.88
2022-08-17T17:08:25.591Z,3.13
2022-08-17T17:10:55.894Z,3.33
2022-08-17T17:13:40.442Z,3.10
2022-08-17T17:16:50.415Z,3.40
2022-08-17T17:19:48.248Z,3.13
2022-08-17T17:22:21.707Z,3.35
2022-08-17T17:25:20.066Z,3.30
2022-08-17T17:28:24.697Z,3.50
2022-08-17T17:31:46.009Z,3.72
2022-08-17T17:34:16.482Z,3.53
2022-08-17T17:36:59.831Z,3.60
2022-08-17T17:39:44.223Z,3.45
2022-08-17T17:42:20.175Z,3.53
2022-08-17T17:45:15.888Z,3.72
2022-08-17T17:47:44.576Z,4.25
2022-08-17T17:50:12.023Z,3.85
2022-08-17T17:53:09.443Z,3.47
2022-08-17T17:56:33.098Z,4.22
2022-08-17T17:59:12.745Z,4.20
2022-08-17T18:02:03.885Z,3.83
2022-08-17T18:04:55.794Z,3.85
2022-08-17T18:07:42.809Z,4.18
2022-08-17T18:10:43.258Z,3.97
2022-08-17T18:13:54.123Z,3.83
2022-08-17T18:16:22.502Z,4.35
2022-08-17T18:18:52.535Z,4.20
2022-08-17T18:21:46.337Z,4.00
2022-08-17T18:24:14.093Z,4.32
2022-08-17T18:27:08.412Z,4.40
2022-08-17T18:29:44.743Z,4.15
2022-08-17T18:32:37.212Z,4.53
2022-08-17T18:35:10.222Z,4.65
2022-08-17T18:37:45.523Z,4.82
2022-08-17T18:40:21.082Z,4.78
2022-08-17T18:43:13.847Z,4.88
2022-08-17T18:45:50.028Z,4.63
2022-08-17T18:48:58.994Z,4.30
2022-08-17T18:51:42.383Z,3.80
2022-08-17T18:54:24.593Z,4.20
2022-08-17T18:56:59.867Z,3.95
2022-08-17T18:59:48.160Z,4.18
2022-08-17T19:05:27.734Z,4.28
2022-08-17T19:08:13.773Z,4.65
2022-08-17T19:10:45.861Z,4.60
2022-08-17T19:13:41.943Z,4.70
2022-08-17T19:17:05.851Z,4.45
2022-08-17T19:20:12.732Z,4.47
2022-08-17T19:23:29.337Z,4.60
2022-08-17T19:26:02.365Z,4.35
2022-08-17T19:28:48.605Z,4.47
2022-08-17T19:31:27.860Z,4.40
2022-08-17T19:33:57.042Z,4.22
2022-08-17T19:36:31.090Z,4.38
2022-08-17T19:39:51.664Z,4.28
2022-08-17T19:42:55.302Z,4.80
2022-08-17T19:46:19.318Z,3.92
2022-08-17T19:49:15.744Z,4.10
2022-08-17T19:52:22.523Z,4.90
2022-08-17T19:55:31.927Z,4.20
2022-08-17T19:58:17.977Z,4.13
2022-08-17T20:00:51.666Z,4.47
2022-08-17T20:03:34.788Z,4.20
2022-08-17T20:06:13.101Z,4.43
2022-08-17T20:09:33.870Z,4.18
2022-08-17T20:12:30.708Z,3.95
2022-08-17T20:15:10.582Z,4.43
2022-08-17T20:17:44.946Z,4.90
2022-08-17T20:21:07.613Z,4.88
2022-08-17T20:24:18.331Z,5.03
2022-08-17T20:26:59.504Z,5.20
2022-08-17T20:30:09.283Z,6.13
2022-08-17T20:32:56.982Z,5.47
2022-08-17T20:35:39.159Z,5.60
2022-08-17T20:38:33.694Z,5.43
2022-08-17T20:41:03.851Z,6.03
2022-08-17T20:43:33.403Z,6.10
2022-08-17T20:46:38.307Z,5.97
2022-08-17T20:49:11.274Z,5.47
2022-08-17T20:52:01.614Z,5.57
2022-08-17T20:54:50.180Z,5.47
2022-08-17T20:57:47.362Z,6.18
2022-08-17T21:00:29.320Z,6.38
2022-08-17T21:03:23.872Z,6.90
2022-08-17T21:06:15.331Z,6.30
2022-08-17T21:09:17.458Z,6.38
2022-08-17T21:12:04.504Z,6.28
2022-08-17T21:15:07.010Z,6.32
2022-08-17T21:17:59.076Z,7.25
2022-08-17T21:21:06.344Z,6.82
2022-08-17T21:24:31.422Z,6.40
2022-08-17T21:27:28.286Z,6.85
2022-08-17T21:30:10.135Z,6.15
2022-08-17T21:32:41.929Z,6.30
2022-08-17T21:35:28.490Z,6.30
2022-08-17T21:38:04.317Z,6.40
2022-08-17T21:40:33.863Z,6.72
2022-08-17T21:43:32.935Z,6.97
2022-08-17T21:46:23.844Z,6.30
2022-08-17T21:48:54.406Z,6.32
2022-08-17T21:51:28.052Z,7.68
2022-08-17T21:54:04.461Z,6.00
2022-08-17T21:56:40.577Z,7.40
2022-08-17T21:59:19.440Z,6.78
2022-08-17T22:02:19.361Z,6.85
2022-08-17T22:05:06.726Z,7.32
2022-08-17T22:08:06.394Z,6.93
2022-08-17T22:10:45.675Z,7.57
2022-08-17T22:13:29.633Z,6.82
2022-08-17T22:16:29.543Z,7.40
2022-08-17T22:18:59.193Z,6.10
2022-08-17T22:21:26.725Z,7.93
2022-08-17T22:24:22.587Z,7.85
2022-08-17T22:27:11.097Z,7.43
2022-08-17T22:29:59.545Z,7.30
2022-08-17T22:32:46.426Z,6.38
2022-08-17T22:35:41.114Z,8.20
2022-08-17T22:38:20.393Z,7.68
2022-08-17T22:40:55.741Z,8.13
2022-08-17T22:43:28.568Z,7.72
2022-08-17T22:45:59.846Z,7.35
2022-08-17T22:48:30.322Z,7.57
2022-08-17T22:51:12.874Z,7.45
2022-08-17T22:54:36.429Z,7.75
2022-08-17T22:57:23.760Z,7.60
2022-08-17T22:59:55.695Z,7.72
2022-08-17T23:02:33.753Z,7.63
2022-08-17T23:05:16.652Z,7.60
2022-08-17T23:07:46.643Z,7.32
2022-08-17T23:10:14.969Z,7.05
2022-08-17T23:12:42.052Z,8.48
2022-08-17T23:15:17.916Z,8.00
2022-08-17T23:17:46.267Z,7.47
2022-08-17T23:20:17.433Z,8.07
2022-08-17T23:22:51.921Z,8.27
2022-08-17T23:25:31.379Z,8.02
2022-08-17T23:28:03.563Z,7.63
2022-08-17T23:30:41.082Z,8.80
2022-08-17T23:33:33.605Z,9.73
2022-08-17T23:36:01.795Z,7.30
2022-08-17T23:38:28.914Z,8.18
2022-08-17T23:40:59.895Z,8.60
2022-08-17T23:43:28.326Z,8.18
2022-08-17T23:45:59.547Z,8.02
2022-08-17T23:48:35.454Z,8.05
2022-08-17T23:51:20.181Z,8.30
2022-08-17T23:54:07.216Z,7.93
2022-08-17T23:56:41.986Z,8.93
2022-08-17T23:59:09.395Z,7.85
